createdAt,value
2023-10-10T00:00:57.041Z,99560.00
2023-10-10T00:03:29.096Z,99564.09
2023-10-10T00:05:59.862Z,99564.09
2023-10-10T00:08:35.141Z,99565.44
2023-10-10T00:11:11.572Z,99578.75
2023-10-10T00:13:43.733Z,99576.84
2023-10-10T00:16:13.360Z,99575.88
2023-10-10T00:18:44.764Z,99580.22
2023-10-10T00:21:24.306Z,99578.41
2023-10-10T00:23:55.359Z,99585.91
2023-10-10T00:26:27.477Z,99580.38
2023-10-10T00:28:56.602Z,99574.88
2023-10-10T00:31:27.801Z,99575.53
2023-10-10T00:33:57.792Z,99567.44
2023-10-10T00:36:32.429Z,99574.56
2023-10-10T00:39:07.217Z,99562.13
2023-10-10T00:41:45.992Z,99558.41
2023-10-10T00:44:17.210Z,99569.16
2023-10-10T00:46:48.693Z,99574.94
2023-10-10T00:49:18.508Z,99566.53
2023-10-10T00:51:48.558Z,99564.03
2023-10-10T00:54:27.823Z,99565.94
2023-10-10T00:56:59.112Z,99559.75
2023-10-10T00:59:37.165Z,99568.38
2023-10-10T01:02:07.043Z,99556.13
2023-10-10T01:04:49.760Z,99561.69
2023-10-10T01:07:20.313Z,99563.25
2023-10-10T01:09:59.364Z,99566.00
2023-10-10T01:12:36.780Z,99570.72
2023-10-10T01:15:15.402Z,99566.81
2023-10-10T01:17:46.309Z,99568.59
2023-10-10T01:20:26.491Z,99571.16
2023-10-10T01:23:00.022Z,99566.28
2023-10-10T01:25:47.408Z,99559.88
2023-10-10T01:28:35.003Z,99552.84
2023-10-10T01:31:08.528Z,99551.88
2023-10-10T01:33:38.534Z,99553.88
2023-10-10T01:36:13.927Z,99554.91
2023-10-10T01:39:09.594Z,99552.66
2023-10-10T01:41:47.218Z,99552.56
2023-10-10T01:44:19.550Z,99548.69
2023-10-10T01:46:48.938Z,99540.75
2023-10-10T01:49:22.265Z,99549.84
2023-10-10T01:51:56.856Z,99542.50
2023-10-10T01:54:36.596Z,99546.19
2023-10-10T01:57:09.039Z,99546.97
2023-10-10T01:59:39.678Z,99548.69
2023-10-10T02:02:12.523Z,99544.47
2023-10-10T02:04:43.076Z,99548.75
2023-10-10T02:07:18.646Z,99537.88
2023-10-10T02:09:54.481Z,99539.25
2023-10-10T02:12:28.062Z,99535.31
2023-10-10T02:18:52.961Z,99531.19
2023-10-10T02:22:31.548Z,99521.34
2023-10-10T02:32:50.213Z,99533.09
2023-10-10T02:35:28.343Z,99526.50
2023-10-10T02:38:05.955Z,99526.59
2023-10-10T02:48:35.530Z,99533.94
2023-10-10T02:51:49.458Z,99538.06
2023-10-10T03:01:50.908Z,99527.09
2023-10-10T03:04:58.943Z,99528.78
2023-10-10T03:07:54.207Z,99522.00
2023-10-10T03:10:24.259Z,99521.00
2023-10-10T03:12:53.929Z,99522.81
2023-10-10T03:27:39.623Z,99534.88
2023-10-10T03:34:30.769Z,99533.97
2023-10-10T03:44:59.324Z,99533.19
2023-10-10T03:51:11.194Z,99533.28
2023-10-10T04:52:34.411Z,99504.91
2023-10-10T05:39:26.713Z,99519.88
2023-10-10T05:46:38.447Z,99527.72
2023-10-10T06:01:17.474Z,99529.38
2023-10-10T06:08:29.538Z,99538.16
2023-10-10T06:11:02.233Z,99535.09
2023-10-10T06:13:54.871Z,99545.19
2023-10-10T06:24:00.657Z,99543.69
2023-10-10T06:37:53.193Z,99545.22
2023-10-10T07:07:46.547Z,99562.97
2023-10-10T07:22:15.852Z,99552.59
2023-10-10T07:29:23.070Z,99552.97
2023-10-10T07:43:50.798Z,99560.59
2023-10-10T07:47:15.663Z,99560.94
2023-10-10T07:50:47.918Z,99563.66
2023-10-10T08:03:48.157Z,99556.31
2023-10-10T08:06:52.651Z,99551.78
2023-10-10T08:14:03.540Z,99560.47
2023-10-10T08:17:32.352Z,99558.56
2023-10-10T08:39:51.007Z,99554.19
2023-10-10T08:58:00.672Z,99562.00
2023-10-10T09:00:39.265Z,99564.38
2023-10-10T09:26:21.750Z,99554.06
2023-10-10T09:33:26.651Z,99553.63
2023-10-10T09:36:52.664Z,99554.91
2023-10-10T09:40:24.452Z,99561.75
2023-10-10T09:58:27.813Z,99539.44
2023-10-10T10:01:47.237Z,99545.34
2023-10-10T10:08:35.969Z,99541.53
2023-10-10T10:12:01.931Z,99545.00
2023-10-10T10:14:48.323Z,99537.59
2023-10-10T10:20:47.592Z,99537.41
2023-10-10T10:24:22.937Z,99541.81
2023-10-10T10:27:25.420Z,99538.06
2023-10-10T10:30:48.509Z,99528.69
2023-10-10T10:37:00.642Z,99531.53
2023-10-10T10:42:39.567Z,99541.63
2023-10-10T10:45:35.533Z,99529.44
2023-10-10T10:58:31.708Z,99525.31
2023-10-10T11:01:09.092Z,99527.25
2023-10-10T11:03:47.735Z,99523.69
2023-10-10T11:06:20.542Z,99514.00
2023-10-10T11:09:16.703Z,99515.06
2023-10-10T11:11:46.632Z,99513.28
2023-10-10T11:14:35.937Z,99513.63
2023-10-10T11:39:20.315Z,99491.31
2023-10-10T11:42:47.207Z,99490.91
2023-10-10T11:45:31.998Z,99479.34
2023-10-10T11:48:02.177Z,99474.28
2023-10-10T11:50:45.213Z,99469.63
2023-10-10T11:53:20.615Z,99474.31
2023-10-10T11:55:49.695Z,99464.28
2023-10-10T11:58:18.697Z,99470.38
2023-10-10T12:00:46.679Z,99465.41
2023-10-10T12:05:52.714Z,99463.16
2023-10-10T12:08:24.447Z,99458.22
2023-10-10T12:11:03.567Z,99449.34
2023-10-10T12:13:37.169Z,99446.91
2023-10-10T12:16:11.717Z,99454.47
2023-10-10T12:18:45.389Z,99442.28
2023-10-10T12:21:15.421Z,99434.94
2023-10-10T12:23:43.354Z,99433.38
2023-10-10T12:26:12.456Z,99435.34
2023-10-10T12:28:41.084Z,99427.28
2023-10-10T12:31:16.854Z,99418.91
2023-10-10T12:33:46.453Z,99424.72
2023-10-10T12:36:14.080Z,99421.44
2023-10-10T12:38:41.807Z,99421.59
2023-10-10T12:41:12.633Z,99418.03
2023-10-10T12:43:42.393Z,99414.22
2023-10-10T12:46:11.139Z,99412.50
2023-10-10T12:48:40.912Z,99414.91
2023-10-10T12:51:10.760Z,99414.50
2023-10-10T12:53:41.331Z,99412.38
2023-10-10T12:56:12.793Z,99414.59
2023-10-10T12:58:44.413Z,99411.34
2023-10-10T13:01:16.973Z,99399.16
2023-10-10T13:03:49.194Z,99394.06
2023-10-10T13:06:17.485Z,99392.66
2023-10-10T13:08:49.574Z,99397.31
2023-10-10T13:11:20.299Z,99399.78
2023-10-10T13:13:52.974Z,99391.63
2023-10-10T13:16:28.887Z,99386.09
2023-10-10T13:18:57.623Z,99394.06
2023-10-10T13:21:25.459Z,99387.94
2023-10-10T13:23:58.663Z,99387.94
2023-10-10T13:26:28.630Z,99390.03
2023-10-10T13:28:58.914Z,99386.94
2023-10-10T13:31:30.438Z,99391.25
2023-10-10T13:33:58.455Z,99394.41
2023-10-10T13:36:26.823Z,99389.88
2023-10-10T13:38:59.096Z,99384.09
2023-10-10T13:41:29.072Z,99385.81
2023-10-10T13:44:00.782Z,99385.28
2023-10-10T13:46:29.783Z,99385.13
2023-10-10T13:48:57.456Z,99380.16
2023-10-10T13:51:28.995Z,99374.19
2023-10-10T13:53:58.598Z,99378.66
2023-10-10T13:56:32.346Z,99368.91
2023-10-10T13:59:01.721Z,99365.09
2023-10-10T14:01:37.856Z,99364.09
2023-10-10T14:04:17.267Z,99365.69
2023-10-10T14:06:49.058Z,99359.59
2023-10-10T14:09:23.209Z,99364.38
2023-10-10T14:11:52.055Z,99362.47
2023-10-10T14:14:21.401Z,99365.59
2023-10-10T14:16:49.305Z,99363.75
2023-10-10T14:19:16.991Z,99369.03
2023-10-10T14:21:44.714Z,99367.72
2023-10-10T14:24:14.896Z,99365.22
2023-10-10T14:26:44.700Z,99365.47
2023-10-10T14:29:14.502Z,99373.28
2023-10-10T14:31:44.659Z,99365.47
2023-10-10T14:34:20.467Z,99361.53
2023-10-10T14:36:51.867Z,99362.19
2023-10-10T14:39:30.866Z,99361.66
2023-10-10T14:41:59.022Z,99368.91
2023-10-10T14:44:27.493Z,99362.09
2023-10-10T14:46:57.211Z,99359.13
2023-10-10T14:49:30.276Z,99353.50
2023-10-10T14:52:01.835Z,99359.59
2023-10-10T14:54:29.438Z,99363.16
2023-10-10T14:56:57.526Z,99352.66
2023-10-10T14:59:25.724Z,99358.19
2023-10-10T15:01:54.385Z,99362.16
2023-10-10T15:04:23.685Z,99357.63
2023-10-10T15:06:55.163Z,99352.69
2023-10-10T15:09:25.671Z,99359.16
2023-10-10T15:11:54.213Z,99348.81
2023-10-10T15:14:22.600Z,99343.16
2023-10-10T15:16:50.732Z,99345.84
2023-10-10T15:19:18.745Z,99341.03
2023-10-10T15:21:49.588Z,99339.75
2023-10-10T15:24:17.914Z,99342.88
2023-10-10T15:26:49.041Z,99348.81
2023-10-10T15:29:18.356Z,99353.75
2023-10-10T15:31:46.680Z,99348.94
2023-10-10T15:34:15.542Z,99349.19
2023-10-10T15:36:45.115Z,99346.94
2023-10-10T15:39:14.880Z,99353.88
2023-10-10T15:41:44.355Z,99349.09
2023-10-10T15:44:13.540Z,99347.09
2023-10-10T15:46:44.704Z,99349.66
2023-10-10T15:49:25.181Z,99354.66
2023-10-10T15:52:04.645Z,99349.44
2023-10-10T15:54:36.371Z,99350.81
2023-10-10T15:57:08.500Z,99344.53
2023-10-10T15:59:37.010Z,99346.06
2023-10-10T16:02:10.012Z,99348.03
2023-10-10T16:04:41.397Z,99346.66
2023-10-10T16:07:09.200Z,99347.63
2023-10-10T16:09:37.236Z,99349.03
2023-10-10T16:12:08.949Z,99345.50
2023-10-10T16:14:37.916Z,99350.22
2023-10-10T16:17:05.982Z,99355.84
2023-10-10T16:19:35.505Z,99350.66
2023-10-10T16:22:03.983Z,99352.66
2023-10-10T16:24:31.580Z,99355.00
2023-10-10T16:27:01.453Z,99354.31
2023-10-10T16:29:34.112Z,99351.28
2023-10-10T16:32:02.505Z,99347.25
2023-10-10T16:34:33.444Z,99356.06
2023-10-10T16:37:01.160Z,99362.97
2023-10-10T16:39:28.887Z,99364.59
2023-10-10T16:41:59.695Z,99360.31
2023-10-10T16:44:28.854Z,99359.25
2023-10-10T16:46:56.649Z,99359.63
2023-10-10T16:49:25.232Z,99360.38
2023-10-10T16:51:55.311Z,99363.16
2023-10-10T16:54:23.013Z,99362.91
2023-10-10T16:56:50.728Z,99362.94
2023-10-10T16:59:18.650Z,99357.69
2023-10-10T17:01:47.783Z,99366.94
2023-10-10T17:04:19.919Z,99368.75
2023-10-10T17:06:49.898Z,99368.09
2023-10-10T17:09:17.872Z,99366.50
2023-10-10T17:11:51.495Z,99367.97
2023-10-10T17:14:19.975Z,99367.81
2023-10-10T17:16:48.961Z,99371.47
2023-10-10T17:19:18.255Z,99375.09
2023-10-10T17:21:48.009Z,99375.28
2023-10-10T17:24:17.500Z,99373.69
2023-10-10T17:26:45.571Z,99375.97
2023-10-10T17:29:13.804Z,99373.44
2023-10-10T17:31:41.924Z,99381.47
2023-10-10T17:34:16.224Z,99382.53
2023-10-10T17:36:44.104Z,99369.13
2023-10-10T17:39:16.588Z,99374.06
2023-10-10T17:41:48.983Z,99378.47
2023-10-10T17:44:18.782Z,99374.66
2023-10-10T17:46:47.813Z,99378.75
2023-10-10T17:49:17.232Z,99378.97
2023-10-10T17:51:46.132Z,99376.66
2023-10-10T17:54:16.911Z,99381.03
2023-10-10T17:56:45.885Z,99376.97
2023-10-10T17:59:13.779Z,99379.03
2023-10-10T18:01:42.932Z,99379.34
2023-10-10T18:04:11.075Z,99378.50
2023-10-10T18:06:40.143Z,99376.47
2023-10-10T18:09:10.101Z,99366.34
2023-10-10T18:11:38.340Z,99381.28
2023-10-10T18:14:07.352Z,99375.75
2023-10-10T18:16:35.544Z,99373.41
2023-10-10T18:19:06.378Z,99375.13
2023-10-10T18:21:34.580Z,99367.13
2023-10-10T18:24:07.356Z,99367.38
2023-10-10T18:26:38.660Z,99371.66
2023-10-10T18:29:06.677Z,99370.25
2023-10-10T18:31:35.546Z,99366.75
2023-10-10T18:34:05.861Z,99363.97
2023-10-10T18:36:35.334Z,99369.41
2023-10-10T18:39:05.033Z,99364.19
2023-10-10T18:41:32.733Z,99368.25
2023-10-10T18:44:00.524Z,99357.44
2023-10-10T18:46:28.367Z,99367.91
2023-10-10T18:48:58.350Z,99362.16
2023-10-10T18:51:26.065Z,99357.56
2023-10-10T18:53:55.911Z,99361.19
2023-10-10T18:56:26.258Z,99362.16
2023-10-10T18:58:53.944Z,99362.78
2023-10-10T19:01:23.117Z,99362.03
2023-10-10T19:03:52.068Z,99360.34
2023-10-10T19:06:20.377Z,99358.50
2023-10-10T19:08:48.368Z,99355.97
2023-10-10T19:11:17.735Z,99351.25
2023-10-10T19:13:50.440Z,99356.81
2023-10-10T19:16:18.764Z,99358.75
2023-10-10T19:18:47.100Z,99353.31
2023-10-10T19:21:16.996Z,99355.44
2023-10-10T19:23:45.368Z,99352.88
2023-10-10T19:26:14.138Z,99352.56
2023-10-10T19:28:42.879Z,99350.41
2023-10-10T19:31:15.383Z,99349.13
2023-10-10T19:33:43.552Z,99346.47
2023-10-10T19:36:11.269Z,99346.78
2023-10-10T19:38:41.394Z,99345.81
2023-10-10T19:41:11.023Z,99345.09
2023-10-10T19:43:39.276Z,99343.16
2023-10-10T19:46:11.229Z,99353.28
2023-10-10T19:48:42.804Z,99347.31
2023-10-10T19:51:18.499Z,99350.50
2023-10-10T19:53:47.206Z,99358.72
2023-10-10T19:56:14.940Z,99353.09
2023-10-10T19:58:43.607Z,99355.53
2023-10-10T20:01:11.276Z,99358.72
2023-10-10T20:03:43.589Z,99353.06
2023-10-10T20:06:21.142Z,99347.88
2023-10-10T20:08:49.757Z,99350.97
2023-10-10T20:11:17.500Z,99356.31
2023-10-10T20:13:46.442Z,99350.19
2023-10-10T20:16:15.898Z,99352.44
2023-10-10T20:18:45.997Z,99353.63
2023-10-10T20:21:14.207Z,99358.31
2023-10-10T20:23:43.909Z,99350.84
2023-10-10T20:26:18.333Z,99348.81
2023-10-10T20:28:47.684Z,99354.69
2023-10-10T20:31:17.773Z,99347.97
2023-10-10T20:33:48.443Z,99347.44
2023-10-10T20:36:17.247Z,99346.69
2023-10-10T20:38:45.363Z,99356.19
2023-10-10T20:41:14.835Z,99353.50
2023-10-10T20:43:43.132Z,99345.63
2023-10-10T20:46:13.070Z,99354.53
2023-10-10T20:48:40.956Z,99358.38
2023-10-10T20:51:14.660Z,99349.31
2023-10-10T20:53:43.128Z,99349.84
2023-10-10T20:56:10.952Z,99354.53
2023-10-10T20:58:39.529Z,99345.06
2023-10-10T21:01:10.794Z,99351.53
2023-10-10T21:03:39.275Z,99332.16
2023-10-10T21:06:07.316Z,99337.59
2023-10-10T21:08:36.359Z,99343.66
2023-10-10T21:11:09.031Z,99339.69
2023-10-10T21:13:36.896Z,99340.66
2023-10-10T21:16:15.338Z,99336.09
2023-10-10T21:18:45.374Z,99332.88
2023-10-10T21:21:13.344Z,99333.28
2023-10-10T21:23:43.553Z,99332.22
2023-10-10T21:26:13.026Z,99336.13
2023-10-10T21:28:40.710Z,99331.22
2023-10-10T21:31:11.101Z,99340.91
2023-10-10T21:33:41.431Z,99331.81
2023-10-10T21:36:10.095Z,99334.38
2023-10-10T21:38:37.879Z,99327.53
2023-10-10T21:41:07.633Z,99331.16
2023-10-10T21:43:35.435Z,99329.34
2023-10-10T21:46:06.348Z,99327.25
2023-10-10T21:48:34.138Z,99331.63
2023-10-10T21:51:04.336Z,99331.72
2023-10-10T21:53:33.121Z,99327.16
2023-10-10T21:56:01.364Z,99325.09
2023-10-10T21:58:30.272Z,99321.16
2023-10-10T22:00:59.424Z,99315.09
2023-10-10T22:03:27.516Z,99319.56
2023-10-10T22:05:56.261Z,99318.47
2023-10-10T22:08:27.024Z,99306.66
2023-10-10T22:10:57.750Z,99307.72
2023-10-10T22:13:26.904Z,99304.41
2023-10-10T22:15:55.935Z,99302.88
2023-10-10T22:18:23.717Z,99301.09
2023-10-10T22:20:51.427Z,99295.56
2023-10-10T22:23:19.054Z,99296.63
2023-10-10T22:25:46.987Z,99298.66
2023-10-10T22:28:14.688Z,99290.56
2023-10-10T22:30:42.350Z,99286.47
2023-10-10T22:33:12.612Z,99283.56
2023-10-10T22:35:41.004Z,99280.34
2023-10-10T22:38:14.037Z,99283.72
2023-10-10T22:40:41.898Z,99282.31
2023-10-10T22:43:14.969Z,99281.34
2023-10-10T22:45:45.174Z,99276.03
2023-10-10T22:48:15.917Z,99274.53
2023-10-10T22:50:44.054Z,99271.41
2023-10-10T22:53:13.418Z,99269.31
2023-10-10T22:55:42.653Z,99274.88
2023-10-10T22:58:10.424Z,99274.31
2023-10-10T23:00:38.887Z,99271.47
2023-10-10T23:03:10.572Z,99278.03
2023-10-10T23:05:42.983Z,99277.38
2023-10-10T23:08:11.818Z,99283.75
2023-10-10T23:10:40.514Z,99282.53
2023-10-10T23:13:13.927Z,99281.19
2023-10-10T23:15:41.917Z,99283.00
2023-10-10T23:18:11.978Z,99277.78
2023-10-10T23:20:42.164Z,99279.97
2023-10-10T23:23:11.737Z,99274.34
2023-10-10T23:25:39.449Z,99279.78
2023-10-10T23:28:09.575Z,99274.56
2023-10-10T23:30:39.992Z,99282.16
2023-10-10T23:33:11.833Z,99274.94
2023-10-10T23:35:41.784Z,99276.94
2023-10-10T23:38:10.464Z,99275.59
2023-10-10T23:40:42.284Z,99286.03
2023-10-10T23:43:12.088Z,99277.16
2023-10-10T23:45:43.206Z,99274.56
2023-10-10T23:48:16.747Z,99275.25
2023-10-10T23:50:46.877Z,99272.84
2023-10-10T23:53:15.162Z,99274.00
2023-10-10T23:55:46.689Z,99272.09
2023-10-10T23:58:15.426Z,99262.59
